Time;durP1;ratioP1;P1;durP2;ratioP2;P2;SDS_P1;SDS_P2;PMS_P1;PMS_P2;Temp;Humidity;BMP_temperature;BMP_pressure;BME280_temperature;BME280_humidity;BME280_pressure;Samples;Min_cycle;Max_cycle;Signal;HPM_P1;HPM_P2
2023/06/22 00:02:18;;;;;;;5.45;4.20;;;;;;;22.40;55.95;101784.16;4989461;28;20061;-77
2023/06/22 00:04:44;;;;;;;5.55;3.72;;;;;;;22.36;56.04;101771.88;4979596;28;20093;-77
2023/06/22 00:07:10;;;;;;;5.30;3.88;;;;;;;22.29;56.43;101769.75;4983463;28;20035;-77
2023/06/22 00:09:35;;;;;;;5.57;4.35;;;;;;;22.25;56.20;101754.81;4986541;28;20032;-77
2023/06/22 00:12:01;;;;;;;4.28;3.80;;;;;;;22.21;57.22;101767.66;4987140;28;20026;-77
2023/06/22 00:14:27;;;;;;;5.57;4.43;;;;;;;22.01;58.28;101769.09;4982136;28;20035;-77
2023/06/22 00:16:57;;;;;;;6.20;4.25;;;;;;;21.93;58.03;101781.41;4986030;28;20493;-77
2023/06/22 00:19:25;;;;;;;4.25;3.85;;;;;;;22.06;57.36;101766.06;4982876;28;20080;-77
2023/06/22 00:21:53;;;;;;;4.68;4.25;;;;;;;22.07;56.60;101771.34;4971465;28;20080;-77
2023/06/22 00:24:22;;;;;;;6.45;4.40;;;;;;;21.89;57.93;101775.38;4984667;28;20536;-77
2023/06/22 00:26:48;;;;;;;6.10;4.78;;;;;;;21.81;57.64;101784.00;4965682;28;20334;-77
2023/06/22 00:29:14;;;;;;;5.50;4.95;;;;;;;21.81;57.22;101773.25;4982732;28;20477;-77
2023/06/22 00:31:39;;;;;;;6.10;4.65;;;;;;;21.85;57.51;101773.88;4991067;28;20068;-77
2023/06/22 00:34:08;;;;;;;8.45;5.20;;;;;;;21.80;57.40;101774.22;4990024;28;21480;-77
2023/06/22 00:36:34;;;;;;;8.50;5.45;;;;;;;21.81;57.57;101775.06;4981831;28;20031;-77
2023/06/22 00:38:59;;;;;;;8.10;6.47;;;;;;;21.78;57.96;101778.88;4986044;28;21263;-77
2023/06/22 00:41:28;;;;;;;7.70;6.13;;;;;;;21.71;57.77;101782.09;4988508;28;20030;-77
2023/06/22 00:43:53;;;;;;;10.57;5.07;;;;;;;21.59;58.16;101773.06;4989083;28;20054;-77
2023/06/22 00:46:19;;;;;;;7.22;5.13;;;;;;;21.52;58.15;101761.03;4987078;28;20060;-77
2023/06/22 00:48:44;;;;;;;6.40;5.57;;;;;;;21.50;58.06;101773.75;4982460;28;20474;-77
2023/06/22 00:51:10;;;;;;;7.63;5.20;;;;;;;21.47;58.42;101764.06;4985310;28;20202;-77
2023/06/22 00:53:36;;;;;;;6.68;5.00;;;;;;;21.46;58.01;101766.88;4992142;28;20026;-77
2023/06/22 00:56:03;;;;;;;8.50;5.25;;;;;;;21.45;58.11;101768.69;4985782;28;20105;-77
2023/06/22 00:58:29;;;;;;;9.50;6.03;;;;;;;21.47;57.71;101764.06;4969473;28;20042;-77
2023/06/22 01:00:54;;;;;;;8.10;5.70;;;;;;;21.41;59.36;101769.03;4983675;28;20053;-77
2023/06/22 01:03:20;;;;;;;7.45;5.88;;;;;;;21.28;59.18;101759.09;4989258;28;20026;-77
2023/06/22 01:05:46;;;;;;;7.82;5.53;;;;;;;21.26;59.08;101754.78;4974776;28;20046;-77
2023/06/22 01:08:30;;;;;;;6.50;5.22;;;;;;;21.34;58.44;101752.44;4981016;28;20499;-77
2023/06/22 01:11:06;;;;;;;6.53;5.10;;;;;;;21.35;58.08;101754.16;4987318;28;20446;-77
2023/06/22 01:13:38;;;;;;;7.00;5.65;;;;;;;21.21;58.87;101752.41;4990986;28;20036;-77
2023/06/22 01:16:29;;;;;;;9.10;5.38;;;;;;;21.22;58.26;101753.28;4981682;28;20038;-77
2023/06/22 01:18:57;;;;;;;8.57;5.43;;;;;;;21.08;58.97;101759.63;4983857;28;20073;-77
2023/06/22 01:21:25;;;;;;;8.25;6.20;;;;;;;21.05;59.44;101755.31;4991927;28;20033;-77
2023/06/22 01:23:58;;;;;;;7.93;5.90;;;;;;;21.01;60.43;101759.19;4989991;28;20324;-77
2023/06/22 01:26:41;;;;;;;7.30;6.25;;;;;;;21.09;59.20;101762.22;4983440;28;20520;-77
2023/06/22 01:29:09;;;;;;;7.78;6.50;;;;;;;21.04;60.33;101766.19;4987648;28;20030;-77
2023/06/22 01:31:35;;;;;;;11.95;6.90;;;;;;;21.03;60.34;101764.44;4987552;28;20046;-77
2023/06/22 01:34:04;;;;;;;9.38;6.88;;;;;;;20.98;61.01;101761.22;4988119;28;20383;-77
2023/06/22 01:36:32;;;;;;;8.98;7.07;;;;;;;20.84;61.93;101762.16;4952646;28;20255;-77
2023/06/22 01:38:58;;;;;;;9.85;7.93;;;;;;;20.87;61.44;101770.03;4987505;28;20029;-77
2023/06/22 01:41:29;;;;;;;9.45;6.50;;;;;;;20.91;61.37;101766.16;4987094;28;20084;-77
2023/06/22 01:43:55;;;;;;;7.40;6.32;;;;;;;21.00;60.93;101765.53;4985083;28;20448;-77
2023/06/22 01:46:21;;;;;;;6.78;6.05;;;;;;;21.05;60.79;101754.47;4982224;28;20030;-77
2023/06/22 01:48:47;;;;;;;8.35;6.72;;;;;;;21.11;60.44;101754.03;4984294;28;20030;-77
2023/06/22 01:51:13;;;;;;;8.02;6.82;;;;;;;21.12;61.01;101750.34;4986649;28;20066;-77
2023/06/22 01:53:38;;;;;;;8.63;6.30;;;;;;;21.20;60.16;101745.31;4987951;28;20049;-77
2023/06/22 01:56:04;;;;;;;11.13;7.30;;;;;;;21.10;60.43;101737.03;4985559;28;20453;-77
2023/06/22 01:58:31;;;;;;;10.38;7.63;;;;;;;21.09;60.43;101745.22;4981400;28;20034;-77
2023/06/22 02:01:06;;;;;;;10.75;6.68;;;;;;;20.98;61.64;101740.56;4969742;28;20493;-77
2023/06/22 02:03:37;;;;;;;11.05;6.50;;;;;;;20.93;61.29;101744.56;4987876;28;20022;-77
2023/06/22 02:06:09;;;;;;;9.82;7.07;;;;;;;20.96;61.77;101749.72;4986102;28;20034;-77
2023/06/22 02:08:50;;;;;;;7.43;6.40;;;;;;;21.05;60.38;101746.41;4980131;28;20140;-77
2023/06/22 02:11:18;;;;;;;7.90;6.63;;;;;;;21.02;60.50;101743.91;4987293;28;20045;-77
2023/06/22 02:13:45;;;;;;;9.35;7.95;;;;;;;20.87;61.34;101748.53;4986378;28;20026;-77
2023/06/22 02:16:11;;;;;;;9.50;7.53;;;;;;;20.86;61.58;101746.81;4985168;28;20109;-77
2023/06/22 02:18:37;;;;;;;7.95;7.15;;;;;;;20.85;61.48;101742.41;4982466;28;20050;-77
2023/06/22 02:21:02;;;;;;;11.43;8.80;;;;;;;20.83;62.53;101757.75;4969057;28;20022;-77
2023/06/22 02:23:28;;;;;;;10.13;8.32;;;;;;;20.71;62.72;101740.66;4988203;28;20022;-77
2023/06/22 02:25:53;;;;;;;9.90;7.85;;;;;;;20.62;62.97;101742.16;4990545;28;20026;-77
2023/06/22 02:28:19;;;;;;;10.32;8.43;;;;;;;20.62;63.10;101739.47;4985451;28;21296;-77
2023/06/22 02:30:44;;;;;;;10.63;7.53;;;;;;;20.60;62.76;101744.06;4987542;28;20050;-77
2023/06/22 02:33:10;;;;;;;9.80;8.68;;;;;;;20.60;63.00;101736.00;4985183;28;20034;-77
2023/06/22 02:35:35;;;;;;;9.95;8.38;;;;;;;20.56;62.88;101730.94;4963997;28;20085;-77
2023/06/22 02:38:02;;;;;;;10.70;9.60;;;;;;;20.52;63.09;101721.41;4988251;28;20573;-77
2023/06/22 02:40:29;;;;;;;10.82;7.93;;;;;;;20.52;63.79;101721.41;4969519;28;20596;-77
2023/06/22 02:42:54;;;;;;;12.00;9.52;;;;;;;20.53;63.26;101718.59;4978877;28;20026;-77
2023/06/22 02:45:20;;;;;;;13.52;8.80;;;;;;;20.50;63.37;101721.47;4983516;28;20030;-77
2023/06/22 02:47:47;;;;;;;13.27;9.10;;;;;;;20.52;63.57;101722.25;4983124;28;20041;-77
2023/06/22 02:50:12;;;;;;;11.73;8.95;;;;;;;20.45;63.33;101718.22;4986771;28;20054;-77
2023/06/22 02:52:39;;;;;;;12.35;8.48;;;;;;;20.37;63.89;101716.03;4985956;28;20481;-77
2023/06/22 02:55:05;;;;;;;10.32;8.48;;;;;;;20.26;64.73;101710.53;4987114;28;20613;-77
2023/06/22 02:57:30;;;;;;;9.82;8.45;;;;;;;20.30;64.15;101712.06;4981252;28;20042;-77
2023/06/22 02:59:55;;;;;;;10.05;8.43;;;;;;;20.30;63.91;101708.53;4968849;28;20038;-77
2023/06/22 03:02:21;;;;;;;9.52;8.02;;;;;;;20.33;63.26;101708.28;4987557;28;20105;-77
2023/06/22 03:04:49;;;;;;;11.93;9.15;;;;;;;20.23;63.58;101716.09;4984460;28;20110;-77
2023/06/22 03:07:14;;;;;;;11.25;8.95;;;;;;;20.17;64.06;101705.78;4985235;28;20053;-77
2023/06/22 03:09:41;;;;;;;10.20;8.88;;;;;;;20.17;64.06;101699.56;4984249;28;20390;-77
2023/06/22 03:12:07;;;;;;;10.02;8.77;;;;;;;20.13;64.09;101689.00;4985294;28;20034;-77
2023/06/22 03:14:32;;;;;;;11.50;9.85;;;;;;;20.00;64.84;101690.78;4984204;28;20061;-77
2023/06/22 03:17:02;;;;;;;11.73;9.40;;;;;;;20.01;64.43;101689.84;4964242;28;20109;-78
2023/06/22 03:19:29;;;;;;;15.70;10.25;;;;;;;20.01;65.11;101686.31;4982547;28;20517;-78
2023/06/22 03:21:54;;;;;;;10.55;8.98;;;;;;;20.11;64.16;101692.78;4990198;28;20084;-78
2023/06/22 03:24:20;;;;;;;14.05;9.93;;;;;;;20.18;63.58;101690.53;4985013;28;20038;-78
2023/06/22 03:26:46;;;;;;;11.75;9.20;;;;;;;20.20;64.06;101686.78;4983661;28;20022;-78
2023/06/22 03:29:12;;;;;;;12.27;10.10;;;;;;;20.21;64.16;101691.19;4985673;28;20030;-78
2023/06/22 03:31:37;;;;;;;13.45;10.52;;;;;;;20.18;64.24;101688.69;4986787;28;20049;-78
2023/06/22 03:34:02;;;;;;;10.68;9.57;;;;;;;20.16;63.94;101689.78;4983539;28;20081;-78
2023/06/22 03:36:27;;;;;;;12.77;9.68;;;;;;;20.13;64.07;101689.00;4980364;28;20031;-78
2023/06/22 03:38:53;;;;;;;12.73;10.23;;;;;;;20.14;64.28;101684.50;4983334;28;20030;-78
2023/06/22 03:41:18;;;;;;;13.38;10.20;;;;;;;20.11;64.48;101684.72;4987470;28;20102;-78
2023/06/22 03:43:43;;;;;;;13.10;9.73;;;;;;;20.08;64.15;101679.56;4985266;28;20027;-78
2023/06/22 03:46:09;;;;;;;15.45;10.88;;;;;;;20.03;65.05;101679.00;4983178;28;20032;-78
2023/06/22 03:48:34;;;;;;;12.07;9.88;;;;;;;20.05;64.45;101672.59;4964575;28;20026;-78
2023/06/22 03:51:00;;;;;;;12.35;10.85;;;;;;;19.98;64.39;101675.75;4985595;28;20521;-78
2023/06/22 03:53:25;;;;;;;11.25;9.63;;;;;;;19.98;64.71;101671.25;4983640;28;20038;-78
2023/06/22 03:55:52;;;;;;;14.45;10.70;;;;;;;19.97;65.18;101660.63;4982800;28;20061;-78
2023/06/22 03:58:20;;;;;;;12.10;10.60;;;;;;;20.00;64.91;101668.44;4985347;28;20031;-78
2023/06/22 04:00:50;;;;;;;12.85;10.93;;;;;;;20.02;65.62;101670.09;4969598;28;20035;-78
2023/06/22 04:03:15;;;;;;;11.32;10.05;;;;;;;20.13;64.20;101672.91;4987184;28;20185;-78
2023/06/22 04:05:41;;;;;;;12.65;9.13;;;;;;;20.13;63.36;101664.00;4978318;28;21812;-78
2023/06/22 04:08:07;;;;;;;11.98;10.30;;;;;;;20.02;64.87;101662.03;4980001;28;20228;-78
2023/06/22 04:10:32;;;;;;;12.93;9.27;;;;;;;19.99;64.16;101664.91;4966202;28;20478;-78
2023/06/22 04:12:58;;;;;;;12.93;9.75;;;;;;;20.03;63.49;101671.81;4989847;28;20125;-78
2023/06/22 04:15:23;;;;;;;12.45;9.38;;;;;;;19.96;64.25;101667.81;4995374;28;20042;-77
2023/06/22 04:17:48;;;;;;;11.25;10.02;;;;;;;20.03;64.57;101670.94;4978383;28;20038;-77
2023/06/22 04:20:13;;;;;;;15.15;11.32;;;;;;;19.82;65.78;101654.47;4976230;28;20456;-77
2023/06/22 04:22:39;;;;;;;14.95;10.65;;;;;;;19.86;65.86;101667.56;4970302;28;20030;-77
2023/06/22 04:25:07;;;;;;;14.88;11.75;;;;;;;19.90;66.16;101661.97;4988488;28;20027;-77
2023/06/22 04:27:36;;;;;;;14.55;11.07;;;;;;;19.94;65.85;101663.50;4987348;28;20053;-77
2023/06/22 04:30:02;;;;;;;14.43;11.70;;;;;;;19.86;66.71;101669.38;4987990;28;20033;-77
2023/06/22 04:32:27;;;;;;;13.55;11.13;;;;;;;19.86;66.88;101667.56;4976391;28;20022;-77
2023/06/22 04:34:52;;;;;;;12.95;10.73;;;;;;;19.95;65.78;101673.28;4991002;28;20034;-77
2023/06/22 04:37:17;;;;;;;12.93;11.48;;;;;;;19.98;66.04;101665.88;4986809;28;20120;-77
2023/06/22 04:39:43;;;;;;;13.55;11.02;;;;;;;20.15;66.20;101678.19;4989092;28;20031;-77
2023/06/22 04:42:08;;;;;;;14.82;11.40;;;;;;;20.24;66.16;101676.72;4988411;28;20488;-77
2023/06/22 04:44:34;;;;;;;12.93;11.25;;;;;;;20.33;65.70;101678.75;4985245;28;20038;-77
2023/06/22 04:47:03;;;;;;;15.52;11.30;;;;;;;20.46;65.23;101674.28;4983199;28;20100;-77
2023/06/22 04:49:32;;;;;;;14.25;10.45;;;;;;;20.61;64.62;101669.69;4989016;28;20559;-77
2023/06/22 04:52:03;;;;;;;15.48;11.18;;;;;;;20.78;64.00;101681.97;4994231;28;20030;-77
2023/06/22 04:54:28;;;;;;;14.30;10.50;;;;;;;20.88;63.52;101681.22;4990556;28;20072;-77
2023/06/22 04:56:56;;;;;;;12.45;10.55;;;;;;;20.94;63.76;101677.25;4992349;28;20018;-77
2023/06/22 04:59:29;;;;;;;12.60;10.63;;;;;;;21.04;63.16;101675.63;4986293;28;20110;-77
2023/06/22 05:02:02;;;;;;;14.23;10.93;;;;;;;21.11;62.69;101676.03;4980484;28;20054;-77
2023/06/22 05:04:27;;;;;;;11.02;9.80;;;;;;;21.21;62.02;101679.78;4986830;28;20031;-77
2023/06/22 05:06:54;;;;;;;11.60;10.38;;;;;;;21.22;62.92;101678.00;4969360;28;20061;-77
2023/06/22 05:09:20;;;;;;;13.27;11.43;;;;;;;21.24;62.21;101668.81;4981335;28;20489;-77
2023/06/22 05:11:46;;;;;;;16.15;11.63;;;;;;;21.27;63.09;101671.31;4992145;28;20026;-77
2023/06/22 05:14:11;;;;;;;13.93;10.45;;;;;;;21.39;61.68;101664.19;4983880;28;20442;-77
2023/06/22 05:16:37;;;;;;;17.85;11.65;;;;;;;21.47;62.27;101663.66;4985081;28;20037;-77
2023/06/22 05:19:05;;;;;;;13.88;11.63;;;;;;;21.54;62.02;101659.50;4987738;28;20429;-77
2023/06/22 05:21:32;;;;;;;15.10;13.13;;;;;;;21.56;62.31;101665.66;4989230;28;20038;-77
2023/06/22 05:24:00;;;;;;;18.75;13.90;;;;;;;21.51;63.71;101667.84;4991155;28;20022;-77
2023/06/22 05:26:34;;;;;;;15.25;12.00;;;;;;;21.59;62.97;101673.50;4984661;28;20385;-77
2023/06/22 05:29:02;;;;;;;14.35;11.90;;;;;;;21.59;62.86;101676.19;4988250;28;20022;-77
2023/06/22 05:31:27;;;;;;;15.63;12.52;;;;;;;21.58;63.19;101669.94;4988221;28;20034;-77
2023/06/22 05:33:54;;;;;;;17.98;14.93;;;;;;;21.61;63.68;101677.81;4989126;28;20040;-77
2023/06/22 05:36:21;;;;;;;17.10;13.85;;;;;;;21.74;62.48;101674.22;4985863;28;20050;-77
2023/06/22 05:38:47;;;;;;;18.98;13.63;;;;;;;21.74;62.54;101668.84;4987122;28;20486;-77
2023/06/22 05:41:13;;;;;;;20.13;13.05;;;;;;;21.71;63.05;101669.06;4991037;28;20038;-77
2023/06/22 05:43:39;;;;;;;21.33;14.95;;;;;;;21.79;63.85;101663.97;4987329;28;20022;-77
2023/06/22 05:46:04;;;;;;;16.20;13.68;;;;;;;21.81;62.99;101654.78;4981695;28;20395;-77
2023/06/22 05:48:29;;;;;;;16.08;13.90;;;;;;;21.91;62.87;101654.97;4987068;28;20054;-77
2023/06/22 05:50:55;;;;;;;19.08;15.10;;;;;;;21.99;63.22;101666.03;4981509;28;20042;-77
2023/06/22 05:53:20;;;;;;;17.15;14.57;;;;;;;22.05;63.38;101667.38;4971787;28;20026;-77
2023/06/22 05:55:46;;;;;;;16.55;14.02;;;;;;;22.19;62.79;101663.69;4981814;28;20034;-77
2023/06/22 05:58:13;;;;;;;17.38;14.15;;;;;;;22.30;61.95;101664.59;4984109;28;20472;-77
2023/06/22 06:00:38;;;;;;;17.10;14.80;;;;;;;22.36;62.38;101656.03;4982225;28;20018;-77
2023/06/22 06:03:03;;;;;;;17.45;14.75;;;;;;;22.53;62.09;101659.28;4982978;28;20026;-77
2023/06/22 06:05:33;;;;;;;19.05;14.68;;;;;;;22.56;61.50;101659.00;4984503;28;20053;-77
2023/06/22 06:08:00;;;;;;;19.83;14.93;;;;;;;22.64;61.91;101670.06;4983143;28;20042;-77
2023/06/22 06:10:25;;;;;;;19.33;14.98;;;;;;;22.72;60.00;101667.63;4986993;28;20481;-77
2023/06/22 06:12:51;;;;;;;19.65;13.85;;;;;;;22.85;60.29;101662.16;4988827;28;20026;-77
2023/06/22 06:15:16;;;;;;;20.17;16.00;;;;;;;22.91;61.02;101657.16;4989030;28;20029;-77
2023/06/22 06:17:46;;;;;;;18.63;15.00;;;;;;;23.03;60.61;101659.84;4988673;28;20030;-77
2023/06/22 06:20:12;;;;;;;17.75;14.40;;;;;;;23.12;59.85;101659.97;4989743;28;20587;-77
2023/06/22 06:22:37;;;;;;;18.70;14.85;;;;;;;23.16;59.89;101660.56;4991306;28;20026;-77
2023/06/22 06:25:02;;;;;;;17.63;14.57;;;;;;;23.27;58.98;101654.31;4987977;28;20030;-77
2023/06/22 06:27:29;;;;;;;20.75;15.85;;;;;;;23.34;59.68;101656.41;4991134;28;20025;-77
2023/06/22 06:29:54;;;;;;;19.50;17.08;;;;;;;23.39;60.13;101662.28;4988272;28;20026;-77
2023/06/22 06:32:19;;;;;;;19.83;14.98;;;;;;;23.37;59.96;101664.25;4985158;28;20041;-77
2023/06/22 06:34:45;;;;;;;20.25;15.30;;;;;;;23.52;58.79;101662.13;4990400;28;20490;-77
2023/06/22 06:37:10;;;;;;;19.17;15.60;;;;;;;23.66;58.95;101661.91;4980729;28;20038;-77
2023/06/22 06:39:35;;;;;;;22.27;17.00;;;;;;;23.70;59.93;101657.09;4982237;28;20026;-77
2023/06/22 06:42:00;;;;;;;19.45;15.98;;;;;;;23.69;58.75;101652.69;4986081;28;20085;-77
2023/06/22 06:44:26;;;;;;;17.35;14.48;;;;;;;23.70;58.17;101653.56;4982965;28;20026;-77
2023/06/22 06:46:51;;;;;;;18.38;15.05;;;;;;;23.76;59.79;101658.44;4984818;28;20022;-77
2023/06/22 06:49:16;;;;;;;20.08;16.23;;;;;;;23.80;58.50;101649.09;4981660;28;20113;-77
2023/06/22 06:51:41;;;;;;;23.05;16.20;;;;;;;23.83;59.08;101662.34;4988264;28;20022;-77
2023/06/22 06:54:07;;;;;;;20.98;16.20;;;;;;;23.89;58.43;101660.00;4979616;28;20030;-77
2023/06/22 06:56:32;;;;;;;19.38;14.73;;;;;;;23.97;58.44;101664.75;4981929;28;20018;-77
2023/06/22 06:58:58;;;;;;;21.20;17.23;;;;;;;24.00;57.91;101661.78;4982557;28;20053;-77
2023/06/22 07:01:23;;;;;;;19.98;16.70;;;;;;;24.03;57.84;101652.59;4984527;28;20052;-77
2023/06/22 07:03:49;;;;;;;19.58;16.67;;;;;;;23.89;57.85;101657.28;4985952;28;20030;-77
2023/06/22 07:06:14;;;;;;;23.75;18.42;;;;;;;23.91;58.60;101654.44;4965515;28;20046;-77
2023/06/22 07:08:39;;;;;;;18.88;16.25;;;;;;;23.81;57.73;101658.91;4984856;28;20042;-77
2023/06/22 07:11:05;;;;;;;21.80;16.75;;;;;;;23.79;57.27;101655.50;4978782;28;20023;-77
2023/06/22 07:13:30;;;;;;;22.30;17.38;;;;;;;23.76;58.06;101653.03;4984361;28;20053;-77
2023/06/22 07:15:55;;;;;;;21.33;17.90;;;;;;;23.71;58.09;101644.47;4981060;28;20085;-77
2023/06/22 07:18:21;;;;;;;19.23;15.73;;;;;;;23.79;57.70;101650.94;4985246;28;20800;-77
2023/06/22 07:20:47;;;;;;;20.30;16.95;;;;;;;23.84;57.65;101651.41;4986270;28;20285;-77
2023/06/22 07:23:12;;;;;;;25.55;18.55;;;;;;;23.76;58.52;101651.19;4984997;28;20030;-77
2023/06/22 07:25:38;;;;;;;24.57;17.93;;;;;;;23.73;57.78;101642.47;4984995;28;20093;-77
2023/06/22 07:28:05;;;;;;;21.15;17.60;;;;;;;23.73;58.96;101648.72;4985734;28;20289;-77
2023/06/22 07:30:31;;;;;;;21.65;16.83;;;;;;;23.74;60.16;101649.63;4985558;28;20093;-77
2023/06/22 07:32:58;;;;;;;20.75;16.77;;;;;;;23.72;59.22;101646.16;4986944;28;20038;-77
2023/06/22 07:35:23;;;;;;;23.45;19.73;;;;;;;23.68;60.73;101650.97;4989008;28;20054;-77
2023/06/22 07:37:49;;;;;;;21.45;18.98;;;;;;;23.65;60.92;101645.84;4982720;28;20137;-77
2023/06/22 07:40:14;;;;;;;22.60;20.20;;;;;;;23.63;62.08;101639.66;4988244;28;20030;-77
2023/06/22 07:42:39;;;;;;;21.63;19.33;;;;;;;23.70;60.12;101640.06;4988946;28;20045;-77
2023/06/22 07:45:07;;;;;;;22.42;17.77;;;;;;;23.75;58.95;101630.59;4980628;28;20050;-77
2023/06/22 07:47:35;;;;;;;22.77;17.17;;;;;;;23.83;58.66;101627.25;4983484;28;20354;-77
2023/06/22 07:50:01;;;;;;;22.05;16.45;;;;;;;23.85;58.65;101615.31;4983569;28;20097;-77
2023/06/22 07:52:30;;;;;;;22.63;18.92;;;;;;;23.92;59.39;101613.84;4968024;28;20034;-77
2023/06/22 07:54:55;;;;;;;22.08;18.38;;;;;;;24.13;58.04;101608.44;4980920;28;20432;-77
2023/06/22 07:57:20;;;;;;;20.27;17.80;;;;;;;24.35;57.68;101604.75;4988512;28;20105;-77
2023/06/22 07:59:46;;;;;;;21.45;17.98;;;;;;;24.60;57.24;101602.66;4982952;28;20050;-77
2023/06/22 08:02:11;;;;;;;22.17;19.67;;;;;;;24.79;57.60;101591.06;4986551;28;20030;-77
2023/06/22 08:04:37;;;;;;;21.83;19.00;;;;;;;24.96;56.59;101586.88;4983060;28;20057;-77
2023/06/22 08:07:03;;;;;;;21.80;18.80;;;;;;;25.06;55.98;101571.53;4962866;28;20078;-77
2023/06/22 08:09:29;;;;;;;20.73;17.85;;;;;;;25.11;55.23;101572.00;4980580;28;20410;-77
2023/06/22 08:11:56;;;;;;;22.02;17.70;;;;;;;25.11;54.96;101561.19;4981570;28;20693;-77
2023/06/22 08:14:22;;;;;;;20.23;18.02;;;;;;;25.09;55.03;101558.63;4987531;28;20018;-77
2023/06/22 08:16:47;;;;;;;22.90;19.15;;;;;;;25.07;55.21;101552.47;4983543;28;20390;-77
2023/06/22 08:19:13;;;;;;;26.80;18.47;;;;;;;25.09;55.81;101549.66;4985426;28;20505;-77
2023/06/22 08:21:38;;;;;;;21.30;18.95;;;;;;;25.10;55.61;101554.06;4986709;28;20363;-77
2023/06/22 08:24:04;;;;;;;22.60;17.63;;;;;;;25.13;55.12;101549.22;4980855;28;20511;-77
2023/06/22 08:26:29;;;;;;;20.98;17.88;;;;;;;25.11;54.86;101553.91;4983043;28;20031;-77
2023/06/22 08:28:54;;;;;;;20.98;15.80;;;;;;;25.10;53.25;101549.50;4964852;28;20107;-77
2023/06/22 08:31:19;;;;;;;20.98;17.35;;;;;;;25.12;53.32;101552.06;4978752;28;20026;-77
2023/06/22 08:33:46;;;;;;;20.27;16.13;;;;;;;25.08;54.19;101543.34;4985229;28;20165;-77
2023/06/22 08:36:13;;;;;;;21.08;16.50;;;;;;;25.11;54.55;101551.19;4985078;28;20022;-77
2023/06/22 08:38:38;;;;;;;19.88;16.65;;;;;;;25.12;53.90;101544.78;4987972;28;20058;-77
2023/06/22 08:41:03;;;;;;;21.15;15.57;;;;;;;25.27;53.15;101542.53;4986194;28;20731;-77
2023/06/22 08:43:28;;;;;;;22.08;15.32;;;;;;;25.16;52.70;101543.53;4993247;28;20473;-77
2023/06/22 08:45:54;;;;;;;17.70;13.67;;;;;;;25.22;52.62;101541.25;4980310;28;20022;-77
2023/06/22 08:48:19;;;;;;;16.58;13.85;;;;;;;25.28;53.96;101548.84;4986649;28;20380;-77
2023/06/22 08:50:44;;;;;;;18.70;14.50;;;;;;;25.33;52.71;101539.28;4987303;28;20022;-77
2023/06/22 08:53:09;;;;;;;18.25;13.10;;;;;;;25.38;52.74;101539.72;4990904;28;20057;-77
2023/06/22 08:55:35;;;;;;;16.90;13.95;;;;;;;25.43;52.00;101540.16;4984647;28;20062;-77
2023/06/22 08:58:00;;;;;;;18.55;14.35;;;;;;;25.31;52.96;101541.25;4985547;28;20116;-77
2023/06/22 09:00:26;;;;;;;15.83;13.47;;;;;;;25.27;51.82;101538.97;4987714;28;20387;-77
2023/06/22 09:02:52;;;;;;;16.80;14.07;;;;;;;25.17;51.59;101533.53;4988779;28;20277;-77
2023/06/22 09:05:17;;;;;;;15.13;13.40;;;;;;;25.29;51.48;101531.59;4986833;28;20429;-77
2023/06/22 09:07:43;;;;;;;16.92;13.50;;;;;;;25.24;50.91;101533.88;4985117;28;20289;-77
2023/06/22 09:10:09;;;;;;;17.65;12.80;;;;;;;25.21;50.93;101532.28;4986232;28;20018;-77
2023/06/22 09:12:34;;;;;;;14.98;13.13;;;;;;;25.26;51.82;101527.28;4986192;28;20022;-77
2023/06/22 09:15:01;;;;;;;18.00;13.10;;;;;;;25.32;50.99;101524.06;4968395;28;20045;-77
2023/06/22 09:17:26;;;;;;;16.25;12.40;;;;;;;25.32;50.97;101512.34;4985691;28;20026;-77
2023/06/22 09:19:52;;;;;;;12.18;10.68;;;;;;;25.41;50.54;101517.78;4963374;28;20050;-77
2023/06/22 09:22:17;;;;;;;14.38;11.05;;;;;;;25.47;50.40;101515.50;4994387;28;20038;-77
2023/06/22 09:24:43;;;;;;;15.13;11.98;;;;;;;25.51;50.73;101520.50;4986652;28;20038;-77
2023/06/22 09:27:08;;;;;;;18.27;11.93;;;;;;;25.57;50.63;101517.22;4987810;28;20101;-77
2023/06/22 09:29:33;;;;;;;13.95;12.00;;;;;;;25.59;49.58;101517.06;4987288;28;20070;-77
2023/06/22 09:31:59;;;;;;;15.45;11.63;;;;;;;25.58;49.66;101515.34;4986867;28;20018;-77
2023/06/22 09:34:25;;;;;;;13.63;11.50;;;;;;;25.37;50.73;101521.78;4985583;28;20026;-77
2023/06/22 09:36:50;;;;;;;13.77;11.45;;;;;;;25.47;49.47;101518.22;4988544;28;20027;-77
2023/06/22 09:39:16;;;;;;;12.67;11.33;;;;;;;25.55;51.70;101521.03;4986155;28;20072;-77
2023/06/22 09:41:41;;;;;;;14.60;11.65;;;;;;;25.54;49.69;101525.59;4984173;28;20847;-77
2023/06/22 09:44:07;;;;;;;12.80;10.38;;;;;;;25.53;50.21;101518.50;4985995;28;20026;-77
2023/06/22 09:46:32;;;;;;;14.27;11.80;;;;;;;25.29;51.02;101510.78;4985243;28;20050;-77
2023/06/22 09:48:57;;;;;;;15.98;12.02;;;;;;;25.27;50.58;101514.63;4987779;28;20022;-77
2023/06/22 09:51:23;;;;;;;14.38;10.82;;;;;;;25.22;50.72;101508.78;4983699;28;20053;-77
2023/06/22 09:53:49;;;;;;;11.80;10.45;;;;;;;25.27;51.02;101503.78;4984559;28;20037;-77
2023/06/22 09:56:15;;;;;;;13.65;11.40;;;;;;;25.24;50.68;101507.66;4982769;28;20053;-78
2023/06/22 09:58:42;;;;;;;12.63;11.32;;;;;;;25.23;50.49;101496.94;4990232;28;20081;-77
2023/06/22 10:01:08;;;;;;;13.40;10.93;;;;;;;25.22;50.36;101501.50;4984009;28;20030;-78
2023/06/22 10:03:33;;;;;;;15.05;10.43;;;;;;;25.27;51.32;101511.91;4988099;28;20041;-78
2023/06/22 10:05:58;;;;;;;14.90;11.10;;;;;;;25.31;49.85;101500.66;4978549;28;20113;-77
2023/06/22 10:08:23;;;;;;;11.93;10.45;;;;;;;25.30;50.29;101503.53;4982198;28;20049;-77
2023/06/22 10:10:49;;;;;;;14.07;11.07;;;;;;;25.31;49.89;101502.50;4988446;28;20033;-78
2023/06/22 10:13:14;;;;;;;13.07;9.88;;;;;;;25.34;51.20;101503.09;4984272;28;20795;-77
2023/06/22 10:15:40;;;;;;;14.43;11.40;;;;;;;25.39;50.96;101508.09;4989300;28;20104;-78
2023/06/22 10:18:05;;;;;;;12.55;11.10;;;;;;;25.41;51.87;101506.97;4984204;28;20379;-77
2023/06/22 10:20:31;;;;;;;12.85;11.43;;;;;;;25.50;51.30;101504.38;4986454;28;20029;-77
2023/06/22 10:22:56;;;;;;;13.18;11.75;;;;;;;25.57;51.22;101494.69;4986855;28;20038;-77
2023/06/22 10:25:22;;;;;;;13.40;12.07;;;;;;;25.61;51.27;101496.13;4987506;28;20041;-77
2023/06/22 10:27:47;;;;;;;12.85;11.45;;;;;;;25.69;51.78;101496.25;4980580;28;20348;-77
2023/06/22 10:30:13;;;;;;;12.75;11.27;;;;;;;25.73;50.11;101500.38;4965891;28;20027;-77
2023/06/22 10:32:39;;;;;;;14.00;10.93;;;;;;;25.77;50.75;101498.28;4987045;28;20482;-78
2023/06/22 10:35:05;;;;;;;13.95;10.82;;;;;;;25.80;51.25;101503.41;4975822;28;20041;-77
2023/06/22 10:37:30;;;;;;;13.48;11.70;;;;;;;25.81;51.45;101507.81;4982008;28;20536;-77
2023/06/22 10:39:56;;;;;;;13.75;11.70;;;;;;;25.77;50.72;101509.97;4988642;28;20034;-77
2023/06/22 10:42:21;;;;;;;15.93;12.10;;;;;;;25.77;50.98;101514.53;4983746;28;20125;-77
2023/06/22 10:44:46;;;;;;;13.27;11.32;;;;;;;25.73;51.38;101524.75;4982326;28;20946;-77
2023/06/22 10:47:12;;;;;;;14.65;13.15;;;;;;;25.68;53.64;101532.44;4977113;28;20030;-77
2023/06/22 10:49:38;;;;;;;13.98;12.13;;;;;;;25.65;53.18;101527.34;4986435;28;20033;-77
2023/06/22 10:52:04;;;;;;;13.98;11.93;;;;;;;25.60;54.03;101535.00;4983265;28;20033;-77
2023/06/22 10:54:29;;;;;;;14.52;12.30;;;;;;;25.53;52.89;101534.75;4985336;28;20041;-77
2023/06/22 10:56:54;;;;;;;17.25;12.98;;;;;;;25.44;56.30;101530.16;4984387;28;20034;-77
2023/06/22 10:59:21;;;;;;;15.73;14.23;;;;;;;25.28;56.87;101538.84;4979601;28;20474;-77
2023/06/22 11:01:46;;;;;;;15.40;13.60;;;;;;;25.16;55.89;101543.53;4984133;28;20496;-78
2023/06/22 11:04:12;;;;;;;18.65;15.48;;;;;;;25.09;57.97;101536.13;4982529;28;20031;-78
2023/06/22 11:06:37;;;;;;;22.05;14.82;;;;;;;24.81;59.80;101545.81;4984642;28;20023;-78
2023/06/22 11:09:03;;;;;;;18.47;14.73;;;;;;;24.62;58.68;101530.34;4983663;28;20088;-77
2023/06/22 11:11:29;;;;;;;18.30;15.90;;;;;;;24.59;58.58;101547.72;4984620;28;22435;-77